sensor_id;sensor_type;location;lat;lon;timestamp;temperature;humidity
5576;DHT22;2810;50.134;8.626;2022-10-17T00:01:11;13.40;99.90
5576;DHT22;2810;50.134;8.626;2022-10-17T00:03:36;13.10;99.90
5576;DHT22;2810;50.134;8.626;2022-10-17T00:06:06;13.50;99.90
5576;DHT22;2810;50.134;8.626;2022-10-17T00:08:32;13.10;99.90
5576;DHT22;2810;50.134;8.626;2022-10-17T00:10:59;13.10;99.90
5576;DHT22;2810;50.134;8.626;2022-10-17T00:13:25;13.10;99.90
5576;DHT22;2810;50.134;8.626;2022-10-17T00:15:50;13.20;99.90
5576;DHT22;2810;50.134;8.626;2022-10-17T00:18:16;13.10;99.90
5576;DHT22;2810;50.134;8.626;2022-10-17T00:20:41;13.10;99.90
5576;DHT22;2810;50.134;8.626;2022-10-17T00:23:07;13.10;99.90
5576;DHT22;2810;50.134;8.626;2022-10-17T00:25:32;13.00;99.90
5576;DHT22;2810;50.134;8.626;2022-10-17T00:27:57;13.00;99.90
5576;DHT22;2810;50.134;8.626;2022-10-17T00:30:23;13.00;99.90
5576;DHT22;2810;50.134;8.626;2022-10-17T00:32:48;13.00;99.90
5576;DHT22;2810;50.134;8.626;2022-10-17T00:35:14;13.00;99.90
5576;DHT22;2810;50.134;8.626;2022-10-17T00:37:39;13.00;99.90
5576;DHT22;2810;50.134;8.626;2022-10-17T00:40:05;13.10;99.90
5576;DHT22;2810;50.134;8.626;2022-10-17T00:42:31;13.00;99.90
5576;DHT22;2810;50.134;8.626;2022-10-17T00:44:58;13.00;99.90
5576;DHT22;2810;50.134;8.626;2022-10-17T00:47:24;12.90;99.90
5576;DHT22;2810;50.134;8.626;2022-10-17T00:49:50;12.90;99.90
5576;DHT22;2810;50.134;8.626;2022-10-17T00:52:22;12.90;99.90
5576;DHT22;2810;50.134;8.626;2022-10-17T00:54:50;12.90;99.90
5576;DHT22;2810;50.134;8.626;2022-10-17T00:57:18;12.80;99.90
5576;DHT22;2810;50.134;8.626;2022-10-17T00:59:44;12.80;99.90
5576;DHT22;2810;50.134;8.626;2022-10-17T01:02:12;12.80;99.90
5576;DHT22;2810;50.134;8.626;2022-10-17T01:04:39;12.80;99.90
5576;DHT22;2810;50.134;8.626;2022-10-17T01:07:05;12.80;99.90
5576;DHT22;2810;50.134;8.626;2022-10-17T01:09:30;12.80;99.90
5576;DHT22;2810;50.134;8.626;2022-10-17T01:17:05;12.80;99.90
5576;DHT22;2810;50.134;8.626;2022-10-17T01:22:21;12.80;99.90
5576;DHT22;2810;50.134;8.626;2022-10-17T01:27:36;12.70;99.90
5576;DHT22;2810;50.134;8.626;2022-10-17T01:35:20;12.70;99.90
5576;DHT22;2810;50.134;8.626;2022-10-17T01:37:48;12.60;99.90
5576;DHT22;2810;50.134;8.626;2022-10-17T01:40:21;12.60;99.90
5576;DHT22;2810;50.134;8.626;2022-10-17T01:42:55;12.60;99.90
5576;DHT22;2810;50.134;8.626;2022-10-17T01:45:24;12.60;99.90
5576;DHT22;2810;50.134;8.626;2022-10-17T01:47:51;12.60;99.90
5576;DHT22;2810;50.134;8.626;2022-10-17T01:50:18;12.60;99.90
5576;DHT22;2810;50.134;8.626;2022-10-17T01:52:52;12.60;99.90
5576;DHT22;2810;50.134;8.626;2022-10-17T01:55:19;12.60;99.90
5576;DHT22;2810;50.134;8.626;2022-10-17T01:57:48;12.60;99.90
5576;DHT22;2810;50.134;8.626;2022-10-17T02:00:16;12.90;99.90
5576;DHT22;2810;50.134;8.626;2022-10-17T02:02:42;12.50;99.90
5576;DHT22;2810;50.134;8.626;2022-10-17T02:05:09;12.50;99.90
5576;DHT22;2810;50.134;8.626;2022-10-17T02:07:34;12.50;99.90
5576;DHT22;2810;50.134;8.626;2022-10-17T02:10:00;12.50;99.90
5576;DHT22;2810;50.134;8.626;2022-10-17T02:19:45;12.40;99.90
5576;DHT22;2810;50.134;8.626;2022-10-17T02:27:53;12.30;99.90
5576;DHT22;2810;50.134;8.626;2022-10-17T02:29:56;12.30;99.90
5576;DHT22;2810;50.134;8.626;2022-10-17T02:35:14;12.30;99.90
5576;DHT22;2810;50.134;8.626;2022-10-17T02:37:42;12.30;99.90
5576;DHT22;2810;50.134;8.626;2022-10-17T02:40:08;12.30;99.90
5576;DHT22;2810;50.134;8.626;2022-10-17T02:42:35;12.20;99.90
5576;DHT22;2810;50.134;8.626;2022-10-17T02:45:00;12.20;99.90
5576;DHT22;2810;50.134;8.626;2022-10-17T02:47:28;12.20;99.90
5576;DHT22;2810;50.134;8.626;2022-10-17T02:49:56;12.20;99.90
5576;DHT22;2810;50.134;8.626;2022-10-17T02:52:25;12.30;99.90
5576;DHT22;2810;50.134;8.626;2022-10-17T02:57:34;12.20;99.90
5576;DHT22;2810;50.134;8.626;2022-10-17T03:00:01;12.20;99.90
5576;DHT22;2810;50.134;8.626;2022-10-17T03:02:28;12.20;99.90
5576;DHT22;2810;50.134;8.626;2022-10-17T03:05:02;12.10;99.90
5576;DHT22;2810;50.134;8.626;2022-10-17T03:07:27;12.10;99.90
5576;DHT22;2810;50.134;8.626;2022-10-17T03:09:52;12.20;99.90
5576;DHT22;2810;50.134;8.626;2022-10-17T03:12:18;12.20;99.90
5576;DHT22;2810;50.134;8.626;2022-10-17T03:14:43;12.20;99.90
5576;DHT22;2810;50.134;8.626;2022-10-17T03:17:09;12.20;99.90
5576;DHT22;2810;50.134;8.626;2022-10-17T03:19:34;12.20;99.90
5576;DHT22;2810;50.134;8.626;2022-10-17T03:22:00;12.20;99.90
5576;DHT22;2810;50.134;8.626;2022-10-17T03:24:25;12.10;99.90
5576;DHT22;2810;50.134;8.626;2022-10-17T03:26:50;12.20;99.90
5576;DHT22;2810;50.134;8.626;2022-10-17T03:29:16;12.10;99.90
5576;DHT22;2810;50.134;8.626;2022-10-17T03:31:41;12.20;99.90
5576;DHT22;2810;50.134;8.626;2022-10-17T03:34:07;12.10;99.90
5576;DHT22;2810;50.134;8.626;2022-10-17T03:36:32;12.20;99.90
5576;DHT22;2810;50.134;8.626;2022-10-17T03:38:58;12.20;99.90
5576;DHT22;2810;50.134;8.626;2022-10-17T03:41:23;12.20;99.90
5576;DHT22;2810;50.134;8.626;2022-10-17T03:43:51;12.20;99.90
5576;DHT22;2810;50.134;8.626;2022-10-17T03:46:16;12.20;99.90
5576;DHT22;2810;50.134;8.626;2022-10-17T03:48:41;12.50;99.90
5576;DHT22;2810;50.134;8.626;2022-10-17T03:51:08;12.20;99.90
5576;DHT22;2810;50.134;8.626;2022-10-17T03:53:33;12.20;99.90
5576;DHT22;2810;50.134;8.626;2022-10-17T03:58:36;12.20;99.90
5576;DHT22;2810;50.134;8.626;2022-10-17T04:01:02;12.10;99.90
5576;DHT22;2810;50.134;8.626;2022-10-17T04:03:28;12.10;99.90
5576;DHT22;2810;50.134;8.626;2022-10-17T04:05:53;12.10;99.90
5576;DHT22;2810;50.134;8.626;2022-10-17T04:08:22;12.20;99.90
5576;DHT22;2810;50.134;8.626;2022-10-17T04:10:47;12.10;99.90
5576;DHT22;2810;50.134;8.626;2022-10-17T04:13:13;12.10;99.90
5576;DHT22;2810;50.134;8.626;2022-10-17T04:15:38;12.10;99.90
5576;DHT22;2810;50.134;8.626;2022-10-17T04:18:03;12.10;99.90
5576;DHT22;2810;50.134;8.626;2022-10-17T04:20:29;12.10;99.90
5576;DHT22;2810;50.134;8.626;2022-10-17T04:22:54;12.10;99.90
5576;DHT22;2810;50.134;8.626;2022-10-17T04:25:20;12.10;99.90
5576;DHT22;2810;50.134;8.626;2022-10-17T04:27:45;12.10;99.90
5576;DHT22;2810;50.134;8.626;2022-10-17T04:30:11;12.10;99.90
5576;DHT22;2810;50.134;8.626;2022-10-17T04:32:36;12.10;99.90
5576;DHT22;2810;50.134;8.626;2022-10-17T04:35:03;12.10;99.90
5576;DHT22;2810;50.134;8.626;2022-10-17T04:37:28;12.00;99.90
5576;DHT22;2810;50.134;8.626;2022-10-17T04:39:54;12.00;99.90
5576;DHT22;2810;50.134;8.626;2022-10-17T04:42:20;12.00;99.90
5576;DHT22;2810;50.134;8.626;2022-10-17T04:44:45;12.00;99.90
5576;DHT22;2810;50.134;8.626;2022-10-17T04:47:10;12.00;99.90
5576;DHT22;2810;50.134;8.626;2022-10-17T04:49:36;12.30;99.90
5576;DHT22;2810;50.134;8.626;2022-10-17T04:52:01;12.00;99.90
5576;DHT22;2810;50.134;8.626;2022-10-17T04:54:27;12.00;99.90
5576;DHT22;2810;50.134;8.626;2022-10-17T04:56:52;12.00;99.90
5576;DHT22;2810;50.134;8.626;2022-10-17T04:59:18;12.00;99.90
5576;DHT22;2810;50.134;8.626;2022-10-17T05:01:43;12.00;99.90
5576;DHT22;2810;50.134;8.626;2022-10-17T05:04:08;12.00;99.90
5576;DHT22;2810;50.134;8.626;2022-10-17T05:06:34;12.00;99.90
5576;DHT22;2810;50.134;8.626;2022-10-17T05:09:01;12.00;99.90
5576;DHT22;2810;50.134;8.626;2022-10-17T05:11:28;12.00;99.90
5576;DHT22;2810;50.134;8.626;2022-10-17T05:13:54;12.00;99.90
5576;DHT22;2810;50.134;8.626;2022-10-17T05:16:20;12.00;99.90
5576;DHT22;2810;50.134;8.626;2022-10-17T05:18:49;12.00;99.90
5576;DHT22;2810;50.134;8.626;2022-10-17T05:21:15;12.00;99.90
5576;DHT22;2810;50.134;8.626;2022-10-17T05:23:40;11.90;99.90
5576;DHT22;2810;50.134;8.626;2022-10-17T05:26:06;11.90;99.90
5576;DHT22;2810;50.134;8.626;2022-10-17T05:28:32;11.90;99.90
5576;DHT22;2810;50.134;8.626;2022-10-17T05:31:01;11.90;99.90
5576;DHT22;2810;50.134;8.626;2022-10-17T05:33:26;11.90;99.90
5576;DHT22;2810;50.134;8.626;2022-10-17T05:35:51;11.90;99.90
5576;DHT22;2810;50.134;8.626;2022-10-17T05:38:17;11.90;99.90
5576;DHT22;2810;50.134;8.626;2022-10-17T05:40:42;12.40;99.90
5576;DHT22;2810;50.134;8.626;2022-10-17T05:43:08;11.90;99.90
5576;DHT22;2810;50.134;8.626;2022-10-17T05:45:34;12.20;99.90
5576;DHT22;2810;50.134;8.626;2022-10-17T05:48:00;12.00;99.90
5576;DHT22;2810;50.134;8.626;2022-10-17T05:50:25;11.90;99.90
5576;DHT22;2810;50.134;8.626;2022-10-17T05:52:54;11.90;99.90
5576;DHT22;2810;50.134;8.626;2022-10-17T05:55:20;11.90;99.90
5576;DHT22;2810;50.134;8.626;2022-10-17T05:57:45;11.90;99.90
5576;DHT22;2810;50.134;8.626;2022-10-17T06:00:11;11.90;99.90
5576;DHT22;2810;50.134;8.626;2022-10-17T06:02:36;11.90;99.90
5576;DHT22;2810;50.134;8.626;2022-10-17T06:05:02;11.80;99.90
5576;DHT22;2810;50.134;8.626;2022-10-17T06:07:27;11.80;99.90
5576;DHT22;2810;50.134;8.626;2022-10-17T06:09:53;11.90;99.90
5576;DHT22;2810;50.134;8.626;2022-10-17T06:12:18;12.30;99.90
5576;DHT22;2810;50.134;8.626;2022-10-17T06:14:44;11.90;99.90
5576;DHT22;2810;50.134;8.626;2022-10-17T06:17:09;12.20;99.90
5576;DHT22;2810;50.134;8.626;2022-10-17T06:19:34;11.90;99.90
5576;DHT22;2810;50.134;8.626;2022-10-17T06:22:00;12.00;99.90
5576;DHT22;2810;50.134;8.626;2022-10-17T06:24:26;12.40;99.90
5576;DHT22;2810;50.134;8.626;2022-10-17T06:26:52;12.00;99.90
5576;DHT22;2810;50.134;8.626;2022-10-17T06:29:17;12.30;99.90
5576;DHT22;2810;50.134;8.626;2022-10-17T06:31:42;12.20;99.90
5576;DHT22;2810;50.134;8.626;2022-10-17T06:34:08;12.20;99.90
5576;DHT22;2810;50.134;8.626;2022-10-17T06:36:33;12.30;99.90
5576;DHT22;2810;50.134;8.626;2022-10-17T06:38:59;12.30;99.90
5576;DHT22;2810;50.134;8.626;2022-10-17T06:41:24;12.40;99.90
5576;DHT22;2810;50.134;8.626;2022-10-17T06:43:50;12.60;99.90
5576;DHT22;2810;50.134;8.626;2022-10-17T06:46:16;12.80;99.90
5576;DHT22;2810;50.134;8.626;2022-10-17T06:48:42;12.80;99.90
5576;DHT22;2810;50.134;8.626;2022-10-17T06:51:08;13.00;99.90
5576;DHT22;2810;50.134;8.626;2022-10-17T06:53:37;13.10;99.90
5576;DHT22;2810;50.134;8.626;2022-10-17T06:56:03;13.10;99.90
5576;DHT22;2810;50.134;8.626;2022-10-17T06:58:29;13.10;99.90
5576;DHT22;2810;50.134;8.626;2022-10-17T07:01:05;13.20;99.90
5576;DHT22;2810;50.134;8.626;2022-10-17T07:03:31;13.20;99.90
5576;DHT22;2810;50.134;8.626;2022-10-17T07:05:56;13.30;99.90
5576;DHT22;2810;50.134;8.626;2022-10-17T07:08:22;13.30;99.90
5576;DHT22;2810;50.134;8.626;2022-10-17T07:10:48;13.40;99.90
5576;DHT22;2810;50.134;8.626;2022-10-17T07:13:14;13.40;99.90
5576;DHT22;2810;50.134;8.626;2022-10-17T07:15:39;13.60;99.90
5576;DHT22;2810;50.134;8.626;2022-10-17T07:18:05;14.10;99.90
5576;DHT22;2810;50.134;8.626;2022-10-17T07:20:31;14.80;99.90
5576;DHT22;2810;50.134;8.626;2022-10-17T07:22:56;16.50;99.90
5576;DHT22;2810;50.134;8.626;2022-10-17T07:25:22;18.10;99.90
5576;DHT22;2810;50.134;8.626;2022-10-17T07:27:48;19.80;99.90
5576;DHT22;2810;50.134;8.626;2022-10-17T07:30:14;21.00;99.90
5576;DHT22;2810;50.134;8.626;2022-10-17T07:32:40;22.00;99.90
5576;DHT22;2810;50.134;8.626;2022-10-17T07:35:05;23.20;99.90
5576;DHT22;2810;50.134;8.626;2022-10-17T07:37:31;23.70;99.90
5576;DHT22;2810;50.134;8.626;2022-10-17T07:39:57;24.10;99.90
5576;DHT22;2810;50.134;8.626;2022-10-17T07:42:22;24.70;99.90
5576;DHT22;2810;50.134;8.626;2022-10-17T07:44:48;25.40;99.90
5576;DHT22;2810;50.134;8.626;2022-10-17T07:47:13;25.90;99.90
5576;DHT22;2810;50.134;8.626;2022-10-17T07:49:38;26.50;99.90
5576;DHT22;2810;50.134;8.626;2022-10-17T07:52:09;26.80;99.90
5576;DHT22;2810;50.134;8.626;2022-10-17T07:54:36;27.60;99.90
5576;DHT22;2810;50.134;8.626;2022-10-17T07:57:01;28.40;99.90
5576;DHT22;2810;50.134;8.626;2022-10-17T07:59:26;28.70;98.20
5576;DHT22;2810;50.134;8.626;2022-10-17T08:01:55;28.30;97.90
5576;DHT22;2810;50.134;8.626;2022-10-17T08:04:21;27.20;99.90
5576;DHT22;2810;50.134;8.626;2022-10-17T08:06:46;26.00;99.90
5576;DHT22;2810;50.134;8.626;2022-10-17T08:09:11;24.90;99.90
5576;DHT22;2810;50.134;8.626;2022-10-17T08:11:37;23.90;99.90
5576;DHT22;2810;50.134;8.626;2022-10-17T08:14:02;23.30;99.90
5576;DHT22;2810;50.134;8.626;2022-10-17T08:16:28;22.80;99.90
5576;DHT22;2810;50.134;8.626;2022-10-17T08:18:53;22.60;99.90
5576;DHT22;2810;50.134;8.626;2022-10-17T08:21:19;22.00;99.90
5576;DHT22;2810;50.134;8.626;2022-10-17T08:23:44;21.50;99.90
5576;DHT22;2810;50.134;8.626;2022-10-17T08:26:10;21.20;99.90
5576;DHT22;2810;50.134;8.626;2022-10-17T08:28:38;20.90;99.90
5576;DHT22;2810;50.134;8.626;2022-10-17T08:31:07;20.70;99.90
5576;DHT22;2810;50.134;8.626;2022-10-17T08:33:33;20.40;99.90
5576;DHT22;2810;50.134;8.626;2022-10-17T08:35:59;20.20;99.90
5576;DHT22;2810;50.134;8.626;2022-10-17T08:38:27;20.30;99.90
5576;DHT22;2810;50.134;8.626;2022-10-17T08:40:52;20.40;99.90
5576;DHT22;2810;50.134;8.626;2022-10-17T08:43:23;20.30;99.90
5576;DHT22;2810;50.134;8.626;2022-10-17T08:45:58;20.40;99.90
5576;DHT22;2810;50.134;8.626;2022-10-17T08:48:25;20.50;99.90
5576;DHT22;2810;50.134;8.626;2022-10-17T08:50:55;20.90;99.90
5576;DHT22;2810;50.134;8.626;2022-10-17T08:55:48;21.80;99.90
5576;DHT22;2810;50.134;8.626;2022-10-17T08:58:19;22.10;99.90
5576;DHT22;2810;50.134;8.626;2022-10-17T09:00:47;22.80;99.90
5576;DHT22;2810;50.134;8.626;2022-10-17T09:05:45;23.70;99.90
5576;DHT22;2810;50.134;8.626;2022-10-17T09:10:59;24.10;99.90
5576;DHT22;2810;50.134;8.626;2022-10-17T09:13:48;24.40;99.90
5576;DHT22;2810;50.134;8.626;2022-10-17T09:16:22;24.60;99.90
5576;DHT22;2810;50.134;8.626;2022-10-17T09:18:59;24.60;99.90
5576;DHT22;2810;50.134;8.626;2022-10-17T09:21:28;24.40;99.90
5576;DHT22;2810;50.134;8.626;2022-10-17T09:23:58;24.50;99.90
5576;DHT22;2810;50.134;8.626;2022-10-17T09:26:25;24.90;99.90
5576;DHT22;2810;50.134;8.626;2022-10-17T09:28:51;25.10;99.90
5576;DHT22;2810;50.134;8.626;2022-10-17T09:31:25;25.80;99.90
5576;DHT22;2810;50.134;8.626;2022-10-17T09:33:54;26.20;99.90
5576;DHT22;2810;50.134;8.626;2022-10-17T09:36:33;27.10;99.90
5576;DHT22;2810;50.134;8.626;2022-10-17T09:39:18;27.70;99.90
5576;DHT22;2810;50.134;8.626;2022-10-17T09:42:01;27.70;99.90
5576;DHT22;2810;50.134;8.626;2022-10-17T09:44:34;27.90;99.90
5576;DHT22;2810;50.134;8.626;2022-10-17T09:47:01;28.10;98.90
5576;DHT22;2810;50.134;8.626;2022-10-17T09:49:31;28.10;99.30
5576;DHT22;2810;50.134;8.626;2022-10-17T09:51:56;28.30;97.90
5576;DHT22;2810;50.134;8.626;2022-10-17T09:54:23;28.90;96.50
5576;DHT22;2810;50.134;8.626;2022-10-17T09:57:23;29.50;94.80
5576;DHT22;2810;50.134;8.626;2022-10-17T09:59:43;29.60;93.70
5576;DHT22;2810;50.134;8.626;2022-10-17T10:04:53;29.00;94.40
5576;DHT22;2810;50.134;8.626;2022-10-17T10:07:19;28.80;93.80
5576;DHT22;2810;50.134;8.626;2022-10-17T10:09:46;28.80;92.90
5576;DHT22;2810;50.134;8.626;2022-10-17T10:12:27;28.80;93.20
5576;DHT22;2810;50.134;8.626;2022-10-17T10:14:54;29.00;92.90
5576;DHT22;2810;50.134;8.626;2022-10-17T10:19:57;29.20;91.80
5576;DHT22;2810;50.134;8.626;2022-10-17T10:22:23;28.60;92.40
5576;DHT22;2810;50.134;8.626;2022-10-17T10:27:33;27.00;97.00
5576;DHT22;2810;50.134;8.626;2022-10-17T10:29:58;26.20;99.70
5576;DHT22;2810;50.134;8.626;2022-10-17T10:32:25;25.40;99.90
5576;DHT22;2810;50.134;8.626;2022-10-17T10:34:52;24.60;99.90
5576;DHT22;2810;50.134;8.626;2022-10-17T10:37:19;23.80;99.90
5576;DHT22;2810;50.134;8.626;2022-10-17T10:39:49;23.30;99.90
5576;DHT22;2810;50.134;8.626;2022-10-17T10:42:20;23.10;99.90
5576;DHT22;2810;50.134;8.626;2022-10-17T10:44:46;23.00;99.90
5576;DHT22;2810;50.134;8.626;2022-10-17T10:47:19;22.90;99.90
5576;DHT22;2810;50.134;8.626;2022-10-17T10:49:45;22.80;99.90
5576;DHT22;2810;50.134;8.626;2022-10-17T10:52:14;22.70;99.90
5576;DHT22;2810;50.134;8.626;2022-10-17T10:54:42;22.80;99.90
5576;DHT22;2810;50.134;8.626;2022-10-17T10:57:09;22.80;99.90
5576;DHT22;2810;50.134;8.626;2022-10-17T11:00:23;23.10;99.90
5576;DHT22;2810;50.134;8.626;2022-10-17T11:04:59;23.00;99.90
5576;DHT22;2810;50.134;8.626;2022-10-17T11:07:45;23.00;99.90
5576;DHT22;2810;50.134;8.626;2022-10-17T11:12:47;23.10;99.90
5576;DHT22;2810;50.134;8.626;2022-10-17T11:25:33;22.40;99.90
5576;DHT22;2810;50.134;8.626;2022-10-17T11:27:59;22.40;99.90
5576;DHT22;2810;50.134;8.626;2022-10-17T11:30:26;22.30;99.90
5576;DHT22;2810;50.134;8.626;2022-10-17T11:32:56;22.30;99.90
5576;DHT22;2810;50.134;8.626;2022-10-17T11:35:31;22.30;99.90
5576;DHT22;2810;50.134;8.626;2022-10-17T11:38:09;22.30;99.90
5576;DHT22;2810;50.134;8.626;2022-10-17T11:40:39;22.30;99.90
5576;DHT22;2810;50.134;8.626;2022-10-17T11:45:35;22.50;99.90
5576;DHT22;2810;50.134;8.626;2022-10-17T11:48:05;22.70;99.90
5576;DHT22;2810;50.134;8.626;2022-10-17T11:50:32;22.60;99.90
5576;DHT22;2810;50.134;8.626;2022-10-17T11:53:12;22.60;99.90
5576;DHT22;2810;50.134;8.626;2022-10-17T11:55:38;22.70;99.90
5576;DHT22;2810;50.134;8.626;2022-10-17T12:03:24;22.70;99.90
5576;DHT22;2810;50.134;8.626;2022-10-17T12:06:11;22.90;99.90
5576;DHT22;2810;50.134;8.626;2022-10-17T12:09:11;23.00;99.90
5576;DHT22;2810;50.134;8.626;2022-10-17T12:14:09;22.80;99.90
5576;DHT22;2810;50.134;8.626;2022-10-17T12:16:49;22.80;99.90
5576;DHT22;2810;50.134;8.626;2022-10-17T12:19:24;22.70;99.90
5576;DHT22;2810;50.134;8.626;2022-10-17T12:21:56;22.70;99.90
5576;DHT22;2810;50.134;8.626;2022-10-17T12:24:33;22.70;99.90
5576;DHT22;2810;50.134;8.626;2022-10-17T12:27:20;22.60;99.90
5576;DHT22;2810;50.134;8.626;2022-10-17T12:29:45;22.60;99.90
5576;DHT22;2810;50.134;8.626;2022-10-17T12:32:12;22.70;99.90
5576;DHT22;2810;50.134;8.626;2022-10-17T12:34:38;22.80;99.90
5576;DHT22;2810;50.134;8.626;2022-10-17T12:37:07;22.80;99.90
5576;DHT22;2810;50.134;8.626;2022-10-17T12:41:59;22.80;99.90
5576;DHT22;2810;50.134;8.626;2022-10-17T12:49:20;22.80;99.90
5576;DHT22;2810;50.134;8.626;2022-10-17T12:54:30;22.80;99.90
5576;DHT22;2810;50.134;8.626;2022-10-17T12:56:58;22.90;99.90
5576;DHT22;2810;50.134;8.626;2022-10-17T12:59:24;22.90;99.90
5576;DHT22;2810;50.134;8.626;2022-10-17T13:01:51;22.80;99.90
5576;DHT22;2810;50.134;8.626;2022-10-17T13:04:17;22.80;99.90
5576;DHT22;2810;50.134;8.626;2022-10-17T13:06:47;22.80;99.90
5576;DHT22;2810;50.134;8.626;2022-10-17T13:09:30;22.80;99.90
5576;DHT22;2810;50.134;8.626;2022-10-17T13:11:57;22.80;99.90
5576;DHT22;2810;50.134;8.626;2022-10-17T13:14:24;22.80;99.90
5576;DHT22;2810;50.134;8.626;2022-10-17T13:16:56;22.80;99.90
5576;DHT22;2810;50.134;8.626;2022-10-17T13:19:23;22.70;99.90
5576;DHT22;2810;50.134;8.626;2022-10-17T13:21:53;22.70;99.90
5576;DHT22;2810;50.134;8.626;2022-10-17T13:24:27;22.80;99.90
5576;DHT22;2810;50.134;8.626;2022-10-17T13:26:53;22.80;99.90
5576;DHT22;2810;50.134;8.626;2022-10-17T13:29:18;22.90;99.90
5576;DHT22;2810;50.134;8.626;2022-10-17T13:31:50;22.90;99.90
5576;DHT22;2810;50.134;8.626;2022-10-17T13:34:17;23.00;99.90
5576;DHT22;2810;50.134;8.626;2022-10-17T13:36:43;23.00;99.90
5576;DHT22;2810;50.134;8.626;2022-10-17T13:39:13;23.10;99.90
5576;DHT22;2810;50.134;8.626;2022-10-17T13:41:39;23.20;99.90
5576;DHT22;2810;50.134;8.626;2022-10-17T13:44:24;23.20;99.90
5576;DHT22;2810;50.134;8.626;2022-10-17T13:46:51;23.20;99.90
5576;DHT22;2810;50.134;8.626;2022-10-17T13:49:19;23.20;99.90
5576;DHT22;2810;50.134;8.626;2022-10-17T13:51:47;23.20;99.90
5576;DHT22;2810;50.134;8.626;2022-10-17T13:54:17;23.60;99.90
5576;DHT22;2810;50.134;8.626;2022-10-17T13:56:43;23.20;99.90
5576;DHT22;2810;50.134;8.626;2022-10-17T13:59:17;23.20;99.90
5576;DHT22;2810;50.134;8.626;2022-10-17T14:01:43;23.10;99.90
5576;DHT22;2810;50.134;8.626;2022-10-17T14:04:09;23.20;99.90
5576;DHT22;2810;50.134;8.626;2022-10-17T14:06:39;23.10;99.90
5576;DHT22;2810;50.134;8.626;2022-10-17T14:09:06;23.10;99.90
5576;DHT22;2810;50.134;8.626;2022-10-17T14:11:40;23.10;99.90
5576;DHT22;2810;50.134;8.626;2022-10-17T14:14:15;23.10;99.90
5576;DHT22;2810;50.134;8.626;2022-10-17T14:16:41;23.30;99.90
5576;DHT22;2810;50.134;8.626;2022-10-17T14:19:22;23.10;99.90
5576;DHT22;2810;50.134;8.626;2022-10-17T14:21:51;23.10;99.90
5576;DHT22;2810;50.134;8.626;2022-10-17T14:27:23;23.00;99.90
5576;DHT22;2810;50.134;8.626;2022-10-17T14:29:49;23.00;99.90
5576;DHT22;2810;50.134;8.626;2022-10-17T14:32:14;23.00;99.90
5576;DHT22;2810;50.134;8.626;2022-10-17T14:34:42;23.00;99.90
5576;DHT22;2810;50.134;8.626;2022-10-17T14:37:19;23.00;99.90
5576;DHT22;2810;50.134;8.626;2022-10-17T14:39:48;22.90;99.90
5576;DHT22;2810;50.134;8.626;2022-10-17T14:42:18;22.90;99.90
5576;DHT22;2810;50.134;8.626;2022-10-17T14:44:47;22.90;99.90
5576;DHT22;2810;50.134;8.626;2022-10-17T14:47:15;22.90;99.90
5576;DHT22;2810;50.134;8.626;2022-10-17T14:49:41;22.80;99.90
5576;DHT22;2810;50.134;8.626;2022-10-17T14:54:48;22.80;99.90
5576;DHT22;2810;50.134;8.626;2022-10-17T14:57:16;22.70;99.90
5576;DHT22;2810;50.134;8.626;2022-10-17T14:59:41;22.60;99.90
5576;DHT22;2810;50.134;8.626;2022-10-17T15:02:07;22.60;99.90
5576;DHT22;2810;50.134;8.626;2022-10-17T15:04:33;22.60;99.90
5576;DHT22;2810;50.134;8.626;2022-10-17T15:06:58;22.60;99.90
5576;DHT22;2810;50.134;8.626;2022-10-17T15:09:24;22.60;99.90
5576;DHT22;2810;50.134;8.626;2022-10-17T15:11:53;22.60;99.90
5576;DHT22;2810;50.134;8.626;2022-10-17T15:14:18;22.50;99.90
5576;DHT22;2810;50.134;8.626;2022-10-17T15:16:44;22.50;99.90
5576;DHT22;2810;50.134;8.626;2022-10-17T15:19:09;22.40;99.90
5576;DHT22;2810;50.134;8.626;2022-10-17T15:21:37;22.40;99.90
5576;DHT22;2810;50.134;8.626;2022-10-17T15:24:03;22.30;99.90
5576;DHT22;2810;50.134;8.626;2022-10-17T15:26:29;22.20;99.90
5576;DHT22;2810;50.134;8.626;2022-10-17T15:28:55;22.20;99.90
5576;DHT22;2810;50.134;8.626;2022-10-17T15:31:22;22.20;99.90
5576;DHT22;2810;50.134;8.626;2022-10-17T15:33:48;22.20;99.90
5576;DHT22;2810;50.134;8.626;2022-10-17T15:36:37;22.10;99.90
5576;DHT22;2810;50.134;8.626;2022-10-17T15:39:03;22.10;99.90
5576;DHT22;2810;50.134;8.626;2022-10-17T15:41:29;22.10;99.90
5576;DHT22;2810;50.134;8.626;2022-10-17T15:43:55;22.10;99.90
5576;DHT22;2810;50.134;8.626;2022-10-17T15:46:21;22.10;99.90
5576;DHT22;2810;50.134;8.626;2022-10-17T15:48:48;22.30;99.90
5576;DHT22;2810;50.134;8.626;2022-10-17T15:51:14;22.00;99.90
5576;DHT22;2810;50.134;8.626;2022-10-17T15:53:39;21.90;99.90
5576;DHT22;2810;50.134;8.626;2022-10-17T15:56:05;21.80;99.90
5576;DHT22;2810;50.134;8.626;2022-10-17T15:58:35;21.70;99.90
5576;DHT22;2810;50.134;8.626;2022-10-17T16:01:01;21.70;99.90
5576;DHT22;2810;50.134;8.626;2022-10-17T16:03:27;21.50;99.90
5576;DHT22;2810;50.134;8.626;2022-10-17T16:05:54;21.40;99.90
5576;DHT22;2810;50.134;8.626;2022-10-17T16:08:20;21.30;99.90
5576;DHT22;2810;50.134;8.626;2022-10-17T16:10:45;21.30;99.90
5576;DHT22;2810;50.134;8.626;2022-10-17T16:13:21;21.10;99.90
5576;DHT22;2810;50.134;8.626;2022-10-17T16:15:46;21.00;99.90
5576;DHT22;2810;50.134;8.626;2022-10-17T16:18:12;21.20;99.90
5576;DHT22;2810;50.134;8.626;2022-10-17T16:20:37;20.80;99.90
5576;DHT22;2810;50.134;8.626;2022-10-17T16:23:03;20.80;99.90
5576;DHT22;2810;50.134;8.626;2022-10-17T16:25:29;20.70;99.90
5576;DHT22;2810;50.134;8.626;2022-10-17T16:27:55;20.50;99.90
5576;DHT22;2810;50.134;8.626;2022-10-17T16:30:22;20.40;99.90
5576;DHT22;2810;50.134;8.626;2022-10-17T16:32:47;20.40;99.90
5576;DHT22;2810;50.134;8.626;2022-10-17T16:35:16;20.30;99.90
5576;DHT22;2810;50.134;8.626;2022-10-17T16:37:41;20.20;99.90
5576;DHT22;2810;50.134;8.626;2022-10-17T16:40:07;20.10;99.90
5576;DHT22;2810;50.134;8.626;2022-10-17T16:42:33;20.00;99.90
5576;DHT22;2810;50.134;8.626;2022-10-17T16:44:58;20.50;99.90
5576;DHT22;2810;50.134;8.626;2022-10-17T16:47:24;19.90;99.90
5576;DHT22;2810;50.134;8.626;2022-10-17T16:49:49;19.90;99.90
5576;DHT22;2810;50.134;8.626;2022-10-17T16:52:14;19.80;99.90
5576;DHT22;2810;50.134;8.626;2022-10-17T16:54:40;19.70;99.90
5576;DHT22;2810;50.134;8.626;2022-10-17T16:57:05;19.70;99.90
5576;DHT22;2810;50.134;8.626;2022-10-17T16:59:31;19.60;99.90
5576;DHT22;2810;50.134;8.626;2022-10-17T17:01:56;19.60;99.90
5576;DHT22;2810;50.134;8.626;2022-10-17T17:04:22;19.50;99.90
5576;DHT22;2810;50.134;8.626;2022-10-17T17:06:47;19.40;99.90
5576;DHT22;2810;50.134;8.626;2022-10-17T17:09:13;19.30;99.90
5576;DHT22;2810;50.134;8.626;2022-10-17T17:11:38;19.50;99.90
5576;DHT22;2810;50.134;8.626;2022-10-17T17:14:04;19.20;99.90
5576;DHT22;2810;50.134;8.626;2022-10-17T17:16:31;19.20;99.90
5576;DHT22;2810;50.134;8.626;2022-10-17T17:18:58;19.10;99.90
5576;DHT22;2810;50.134;8.626;2022-10-17T17:21:24;19.10;99.90
5576;DHT22;2810;50.134;8.626;2022-10-17T17:23:52;19.10;99.90
5576;DHT22;2810;50.134;8.626;2022-10-17T17:26:19;19.10;99.90
5576;DHT22;2810;50.134;8.626;2022-10-17T17:28:45;18.60;99.90
5576;DHT22;2810;50.134;8.626;2022-10-17T17:31:11;19.10;99.90
5576;DHT22;2810;50.134;8.626;2022-10-17T17:33:38;19.00;99.90
5576;DHT22;2810;50.134;8.626;2022-10-17T17:36:04;19.00;99.90
5576;DHT22;2810;50.134;8.626;2022-10-17T17:38:31;19.00;99.90